sensor_id;sensor_type;location;lat;lon;timestamp;pressure;altitude;pressure_sealevel;temperature;humidity
44198;BME280;30157;55.512;37.764;2023-03-14T00:01:23;99825.66;;;-5.43;76.83
44198;BME280;30157;55.512;37.764;2023-03-14T00:03:49;99773.91;;;-5.63;76.87
44198;BME280;30157;55.512;37.764;2023-03-14T00:06:16;99651.53;;;-6.25;76.29
44198;BME280;30157;55.512;37.764;2023-03-14T00:08:43;99799.34;;;-5.31;76.39
44198;BME280;30157;55.512;37.764;2023-03-14T00:11:11;99683.91;;;-5.89;76.62
44198;BME280;30157;55.512;37.764;2023-03-14T00:13:37;99691.94;;;-5.81;76.18
44198;BME280;30157;55.512;37.764;2023-03-14T00:16:05;99789.09;;;-5.19;76.22
44198;BME280;30157;55.512;37.764;2023-03-14T00:18:32;99767.34;;;-5.16;76.10
44198;BME280;30157;55.512;37.764;2023-03-14T00:20:59;99748.22;;;-5.26;76.17
44198;BME280;30157;55.512;37.764;2023-03-14T00:23:27;99750.44;;;-5.17;76.08
44198;BME280;30157;55.512;37.764;2023-03-14T00:25:52;99727.72;;;-5.15;75.60
44198;BME280;30157;55.512;37.764;2023-03-14T00:28:18;99758.78;;;-5.03;75.47
44198;BME280;30157;55.512;37.764;2023-03-14T00:30:46;99687.34;;;-5.29;75.01
44198;BME280;30157;55.512;37.764;2023-03-14T00:33:12;99723.69;;;-5.12;74.56
44198;BME280;30157;55.512;37.764;2023-03-14T00:35:40;99732.00;;;-4.99;75.48
44198;BME280;30157;55.512;37.764;2023-03-14T00:38:06;99647.66;;;-5.45;75.41
44198;BME280;30157;55.512;37.764;2023-03-14T00:40:31;99687.22;;;-5.15;75.50
44198;BME280;30157;55.512;37.764;2023-03-14T00:42:57;99619.66;;;-5.48;75.54
44198;BME280;30157;55.512;37.764;2023-03-14T00:45:23;99712.09;;;-4.77;75.79
44198;BME280;30157;55.512;37.764;2023-03-14T00:47:48;99665.44;;;-4.97;76.11
44198;BME280;30157;55.512;37.764;2023-03-14T00:50:14;99695.09;;;-4.79;75.94
44198;BME280;30157;55.512;37.764;2023-03-14T00:52:40;99619.22;;;-5.09;76.39
44198;BME280;30157;55.512;37.764;2023-03-14T00:55:05;99709.13;;;-4.38;77.45
44198;BME280;30157;55.512;37.764;2023-03-14T00:57:31;99650.13;;;-4.68;77.56
44198;BME280;30157;55.512;37.764;2023-03-14T00:59:57;99696.16;;;-4.28;78.07
44198;BME280;30157;55.512;37.764;2023-03-14T01:02:22;99714.75;;;-4.27;79.20
44198;BME280;30157;55.512;37.764;2023-03-14T01:04:49;99681.38;;;-4.51;79.58
44198;BME280;30157;55.512;37.764;2023-03-14T01:07:15;99688.47;;;-4.29;79.70
44198;BME280;30157;55.512;37.764;2023-03-14T01:09:41;99706.69;;;-4.20;80.73
44198;BME280;30157;55.512;37.764;2023-03-14T01:12:08;99688.78;;;-4.23;82.11
44198;BME280;30157;55.512;37.764;2023-03-14T01:14:33;99681.09;;;-4.25;82.24
44198;BME280;30157;55.512;37.764;2023-03-14T01:16:59;99598.63;;;-4.67;82.66
44198;BME280;30157;55.512;37.764;2023-03-14T01:19:28;99684.69;;;-4.21;83.31
44198;BME280;30157;55.512;37.764;2023-03-14T01:21:53;99573.66;;;-4.78;83.85
44198;BME280;30157;55.512;37.764;2023-03-14T01:24:19;99691.50;;;-4.03;84.31
44198;BME280;30157;55.512;37.764;2023-03-14T01:26:46;99688.31;;;-3.99;84.39
44198;BME280;30157;55.512;37.764;2023-03-14T01:29:12;99635.78;;;-4.35;86.24
44198;BME280;30157;55.512;37.764;2023-03-14T01:31:40;99637.16;;;-4.25;86.33
44198;BME280;30157;55.512;37.764;2023-03-14T01:34:06;99656.16;;;-4.17;87.51
44198;BME280;30157;55.512;37.764;2023-03-14T01:36:32;99656.16;;;-4.17;88.74
44198;BME280;30157;55.512;37.764;2023-03-14T01:39:00;99616.38;;;-4.18;88.74
44198;BME280;30157;55.512;37.764;2023-03-14T01:41:26;99617.06;;;-4.04;89.17
44198;BME280;30157;55.512;37.764;2023-03-14T01:43:54;99601.41;;;-4.13;90.35
44198;BME280;30157;55.512;37.764;2023-03-14T01:48:59;99634.81;;;-4.04;90.47
44198;BME280;30157;55.512;37.764;2023-03-14T01:51:32;99613.53;;;-4.24;91.76
44198;BME280;30157;55.512;37.764;2023-03-14T01:54:09;99640.22;;;-3.98;91.24
44198;BME280;30157;55.512;37.764;2023-03-14T01:56:37;99543.72;;;-4.52;91.27
44198;BME280;30157;55.512;37.764;2023-03-14T01:59:06;99575.50;;;-4.24;91.86
44198;BME280;30157;55.512;37.764;2023-03-14T02:01:34;99500.19;;;-4.61;91.86
44198;BME280;30157;55.512;37.764;2023-03-14T02:04:02;99584.28;;;-4.01;92.59
44198;BME280;30157;55.512;37.764;2023-03-14T02:06:42;99607.31;;;-3.96;93.06
44198;BME280;30157;55.512;37.764;2023-03-14T02:09:10;99570.84;;;-4.16;93.20
44198;BME280;30157;55.512;37.764;2023-03-14T02:11:36;99436.13;;;-4.93;93.89
44198;BME280;30157;55.512;37.764;2023-03-14T02:14:07;99549.63;;;-4.18;94.33
44198;BME280;30157;55.512;37.764;2023-03-14T02:17:01;99580.00;;;-4.02;95.18
44198;BME280;30157;55.512;37.764;2023-03-14T02:22:44;99589.53;;;-3.80;95.45
44198;BME280;30157;55.512;37.764;2023-03-14T02:28:01;99569.41;;;-3.77;96.43
44198;BME280;30157;55.512;37.764;2023-03-14T02:30:30;99572.00;;;-3.75;96.45
44198;BME280;30157;55.512;37.764;2023-03-14T02:33:00;99566.34;;;-3.69;96.43
44198;BME280;30157;55.512;37.764;2023-03-14T02:35:33;99570.78;;;-3.65;96.39
44198;BME280;30157;55.512;37.764;2023-03-14T02:40:48;99534.53;;;-3.81;97.15
44198;BME280;30157;55.512;37.764;2023-03-14T02:43:14;99547.03;;;-3.67;97.44
44198;BME280;30157;55.512;37.764;2023-03-14T02:45:47;99417.13;;;-4.32;97.12
44198;BME280;30157;55.512;37.764;2023-03-14T02:48:28;99432.31;;;-4.16;98.02
44198;BME280;30157;55.512;37.764;2023-03-14T02:50:57;99496.34;;;-3.66;98.31
44198;BME280;30157;55.512;37.764;2023-03-14T02:53:27;99439.44;;;-3.89;99.01
44198;BME280;30157;55.512;37.764;2023-03-14T02:55:55;99430.56;;;-3.99;100.00
44198;BME280;30157;55.512;37.764;2023-03-14T02:58:23;99478.03;;;-3.78;100.00
44198;BME280;30157;55.512;37.764;2023-03-14T03:00:55;99487.50;;;-3.56;100.00
44198;BME280;30157;55.512;37.764;2023-03-14T03:03:22;99460.59;;;-3.71;100.00
44198;BME280;30157;55.512;37.764;2023-03-14T03:05:52;99471.03;;;-3.82;100.00
44198;BME280;30157;55.512;37.764;2023-03-14T03:08:19;99504.66;;;-3.50;100.00
44198;BME280;30157;55.512;37.764;2023-03-14T03:10:46;99505.75;;;-3.45;100.00
44198;BME280;30157;55.512;37.764;2023-03-14T03:13:12;99465.69;;;-3.71;100.00
44198;BME280;30157;55.512;37.764;2023-03-14T03:15:39;99432.50;;;-3.93;100.00
44198;BME280;30157;55.512;37.764;2023-03-14T03:18:06;99478.13;;;-3.57;100.00
44198;BME280;30157;55.512;37.764;2023-03-14T03:20:32;99470.81;;;-3.51;100.00
44198;BME280;30157;55.512;37.764;2023-03-14T03:22:59;99431.38;;;-3.62;100.00
44198;BME280;30157;55.512;37.764;2023-03-14T03:25:25;99477.31;;;-3.38;100.00
44198;BME280;30157;55.512;37.764;2023-03-14T03:27:51;99472.31;;;-3.36;100.00
44198;BME280;30157;55.512;37.764;2023-03-14T03:30:20;99424.50;;;-3.65;100.00
44198;BME280;30157;55.512;37.764;2023-03-14T03:32:47;99468.16;;;-3.34;100.00
44198;BME280;30157;55.512;37.764;2023-03-14T03:35:13;99464.13;;;-3.31;100.00
44198;BME280;30157;55.512;37.764;2023-03-14T03:37:40;99456.69;;;-3.26;100.00
44198;BME280;30157;55.512;37.764;2023-03-14T03:40:08;99452.75;;;-3.19;100.00
44198;BME280;30157;55.512;37.764;2023-03-14T03:42:36;99441.88;;;-3.17;100.00
44198;BME280;30157;55.512;37.764;2023-03-14T03:45:03;99300.88;;;-3.89;100.00
44198;BME280;30157;55.512;37.764;2023-03-14T03:47:31;99303.88;;;-3.78;100.00
44198;BME280;30157;55.512;37.764;2023-03-14T03:49:57;99427.31;;;-3.01;100.00
44198;BME280;30157;55.512;37.764;2023-03-14T03:52:22;99368.41;;;-3.33;100.00
44198;BME280;30157;55.512;37.764;2023-03-14T03:54:48;99415.66;;;-2.96;100.00
44198;BME280;30157;55.512;37.764;2023-03-14T03:57:14;99408.25;;;-2.92;100.00
44198;BME280;30157;55.512;37.764;2023-03-14T03:59:39;99369.25;;;-3.13;100.00
44198;BME280;30157;55.512;37.764;2023-03-14T04:02:07;99413.66;;;-2.84;100.00
44198;BME280;30157;55.512;37.764;2023-03-14T04:04:33;99302.69;;;-3.47;100.00
44198;BME280;30157;55.512;37.764;2023-03-14T04:07:01;99411.38;;;-2.78;100.00
44198;BME280;30157;55.512;37.764;2023-03-14T04:09:26;99392.66;;;-2.80;100.00
44198;BME280;30157;55.512;37.764;2023-03-14T04:12:15;99335.06;;;-3.22;100.00
44198;BME280;30157;55.512;37.764;2023-03-14T04:14:53;99315.34;;;-3.27;100.00
44198;BME280;30157;55.512;37.764;2023-03-14T04:17:21;99414.84;;;-2.76;100.00
44198;BME280;30157;55.512;37.764;2023-03-14T04:19:46;99301.50;;;-3.34;100.00
44198;BME280;30157;55.512;37.764;2023-03-14T04:22:15;99413.72;;;-2.61;100.00
44198;BME280;30157;55.512;37.764;2023-03-14T04:24:47;99410.41;;;-2.60;100.00
44198;BME280;30157;55.512;37.764;2023-03-14T04:27:13;99403.84;;;-2.55;100.00
44198;BME280;30157;55.512;37.764;2023-03-14T04:29:42;99282.59;;;-3.21;100.00
44198;BME280;30157;55.512;37.764;2023-03-14T04:32:08;99381.75;;;-2.56;100.00
44198;BME280;30157;55.512;37.764;2023-03-14T04:34:36;99286.66;;;-3.05;100.00
44198;BME280;30157;55.512;37.764;2023-03-14T04:37:03;99375.31;;;-2.48;100.00
44198;BME280;30157;55.512;37.764;2023-03-14T04:39:34;99371.59;;;-2.35;100.00
44198;BME280;30157;55.512;37.764;2023-03-14T04:42:20;99360.81;;;-2.29;100.00
44198;BME280;30157;55.512;37.764;2023-03-14T04:44:46;99341.09;;;-2.35;100.00
44198;BME280;30157;55.512;37.764;2023-03-14T04:47:15;99280.16;;;-2.77;100.00
44198;BME280;30157;55.512;37.764;2023-03-14T04:49:41;99357.19;;;-2.13;100.00
44198;BME280;30157;55.512;37.764;2023-03-14T04:52:10;99356.50;;;-2.09;100.00
44198;BME280;30157;55.512;37.764;2023-03-14T04:54:37;99353.91;;;-2.11;100.00
44198;BME280;30157;55.512;37.764;2023-03-14T04:57:03;99220.38;;;-2.90;100.00
44198;BME280;30157;55.512;37.764;2023-03-14T04:59:31;99338.63;;;-2.11;100.00
44198;BME280;30157;55.512;37.764;2023-03-14T05:02:04;99316.94;;;-2.24;100.00
44198;BME280;30157;55.512;37.764;2023-03-14T05:04:48;99357.09;;;-1.94;100.00
44198;BME280;30157;55.512;37.764;2023-03-14T05:07:13;99350.56;;;-1.87;100.00
44198;BME280;30157;55.512;37.764;2023-03-14T05:09:50;99333.16;;;-1.99;100.00
44198;BME280;30157;55.512;37.764;2023-03-14T05:12:34;99355.09;;;-1.78;100.00
44198;BME280;30157;55.512;37.764;2023-03-14T05:15:32;99241.59;;;-2.44;100.00
44198;BME280;30157;55.512;37.764;2023-03-14T05:18:29;99337.00;;;-1.63;100.00
44198;BME280;30157;55.512;37.764;2023-03-14T05:21:15;99310.97;;;-1.56;100.00
44198;BME280;30157;55.512;37.764;2023-03-14T05:24:02;99309.56;;;-1.48;100.00
44198;BME280;30157;55.512;37.764;2023-03-14T05:26:42;99278.25;;;-1.45;100.00
44198;BME280;30157;55.512;37.764;2023-03-14T05:29:26;99304.28;;;-1.28;100.00
44198;BME280;30157;55.512;37.764;2023-03-14T05:32:18;99307.94;;;-1.20;100.00
44198;BME280;30157;55.512;37.764;2023-03-14T05:35:07;99293.97;;;-1.07;100.00
44198;BME280;30157;55.512;37.764;2023-03-14T05:38:05;99282.75;;;-1.12;100.00
44198;BME280;30157;55.512;37.764;2023-03-14T05:40:34;99256.72;;;-1.04;99.00
44198;BME280;30157;55.512;37.764;2023-03-14T05:43:18;99288.81;;;-0.83;97.45
44198;BME280;30157;55.512;37.764;2023-03-14T05:46:02;99267.69;;;-0.79;97.11
44198;BME280;30157;55.512;37.764;2023-03-14T05:48:28;99152.53;;;-1.49;95.54
44198;BME280;30157;55.512;37.764;2023-03-14T05:51:17;99273.56;;;-0.54;96.05
44198;BME280;30157;55.512;37.764;2023-03-14T05:53:51;99190.25;;;-1.11;92.42
44198;BME280;30157;55.512;37.764;2023-03-14T05:56:49;99298.75;;;-0.38;92.97
44198;BME280;30157;55.512;37.764;2023-03-14T05:59:32;99309.09;;;-0.31;90.70
44198;BME280;30157;55.512;37.764;2023-03-14T06:02:24;99312.13;;;-0.16;90.69
44198;BME280;30157;55.512;37.764;2023-03-14T06:04:59;99199.78;;;-0.77;92.16
44198;BME280;30157;55.512;37.764;2023-03-14T06:07:25;99267.44;;;-0.32;89.13
44198;BME280;30157;55.512;37.764;2023-03-14T06:09:51;99333.28;;;0.09;88.75
44198;BME280;30157;55.512;37.764;2023-03-14T06:12:18;99269.81;;;-0.09;87.80
44198;BME280;30157;55.512;37.764;2023-03-14T06:14:45;99314.16;;;0.25;88.16
44198;BME280;30157;55.512;37.764;2023-03-14T06:17:11;99292.56;;;0.13;86.21
44198;BME280;30157;55.512;37.764;2023-03-14T06:19:45;98997.84;;;-1.58;85.98
44198;BME280;30157;55.512;37.764;2023-03-14T06:22:12;99206.81;;;-0.12;84.80
44198;BME280;30157;55.512;37.764;2023-03-14T06:24:39;99294.34;;;0.46;85.20
44198;BME280;30157;55.512;37.764;2023-03-14T06:27:05;99222.69;;;0.08;84.61
44198;BME280;30157;55.512;37.764;2023-03-14T06:29:30;99206.38;;;0.03;84.29
44198;BME280;30157;55.512;37.764;2023-03-14T06:31:56;99204.59;;;0.01;83.38
44198;BME280;30157;55.512;37.764;2023-03-14T06:34:22;99291.47;;;0.66;84.51
44198;BME280;30157;55.512;37.764;2023-03-14T06:36:49;99249.41;;;0.53;84.88
44198;BME280;30157;55.512;37.764;2023-03-14T06:39:15;99276.81;;;0.60;83.33
44198;BME280;30157;55.512;37.764;2023-03-14T06:41:45;99245.94;;;0.51;83.47
44198;BME280;30157;55.512;37.764;2023-03-14T06:44:11;99274.47;;;0.68;82.42
44198;BME280;30157;55.512;37.764;2023-03-14T06:46:37;99249.59;;;0.59;81.80
44198;BME280;30157;55.512;37.764;2023-03-14T06:49:03;99191.97;;;0.37;80.87
44198;BME280;30157;55.512;37.764;2023-03-14T06:51:32;99247.44;;;0.76;81.16
44198;BME280;30157;55.512;37.764;2023-03-14T06:53:59;99232.75;;;0.68;81.60
44198;BME280;30157;55.512;37.764;2023-03-14T06:56:27;99232.13;;;0.76;80.04
44198;BME280;30157;55.512;37.764;2023-03-14T06:58:54;99230.50;;;0.80;79.63
44198;BME280;30157;55.512;37.764;2023-03-14T07:01:26;99260.13;;;1.07;80.60
44198;BME280;30157;55.512;37.764;2023-03-14T07:03:59;99257.53;;;1.05;80.89
44198;BME280;30157;55.512;37.764;2023-03-14T07:06:25;99150.53;;;0.47;78.85
44198;BME280;30157;55.512;37.764;2023-03-14T07:08:52;99258.06;;;1.27;78.60
44198;BME280;30157;55.512;37.764;2023-03-14T07:11:23;99265.94;;;1.36;78.05
44198;BME280;30157;55.512;37.764;2023-03-14T07:13:49;99233.81;;;1.11;78.41
44198;BME280;30157;55.512;37.764;2023-03-14T07:16:15;99271.16;;;1.41;78.36
44198;BME280;30157;55.512;37.764;2023-03-14T07:18:41;99278.88;;;1.44;78.18
44198;BME280;30157;55.512;37.764;2023-03-14T07:21:07;99221.16;;;1.17;77.26
44198;BME280;30157;55.512;37.764;2023-03-14T07:23:35;99170.22;;;0.87;76.82
44198;BME280;30157;55.512;37.764;2023-03-14T07:26:01;99264.34;;;1.41;76.86
44198;BME280;30157;55.512;37.764;2023-03-14T07:28:29;99279.25;;;1.59;77.58
44198;BME280;30157;55.512;37.764;2023-03-14T07:31:01;99295.59;;;1.64;77.28
44198;BME280;30157;55.512;37.764;2023-03-14T07:33:31;99282.91;;;1.71;77.27
44198;BME280;30157;55.512;37.764;2023-03-14T07:35:57;99302.97;;;1.90;76.95
44198;BME280;30157;55.512;37.764;2023-03-14T07:38:22;99302.09;;;1.90;76.62
44198;BME280;30157;55.512;37.764;2023-03-14T07:41:11;99292.31;;;1.72;76.90
44198;BME280;30157;55.512;37.764;2023-03-14T07:43:44;99304.03;;;1.62;78.15
44198;BME280;30157;55.512;37.764;2023-03-14T07:46:10;99257.34;;;1.34;78.27
44198;BME280;30157;55.512;37.764;2023-03-14T07:48:38;99270.44;;;1.46;79.55
44198;BME280;30157;55.512;37.764;2023-03-14T07:51:05;99242.81;;;1.31;79.95
44198;BME280;30157;55.512;37.764;2023-03-14T07:53:30;99296.19;;;1.54;80.20
44198;BME280;30157;55.512;37.764;2023-03-14T07:55:56;99271.25;;;1.45;81.11
44198;BME280;30157;55.512;37.764;2023-03-14T07:58:23;99206.53;;;1.10;80.28
44198;BME280;30157;55.512;37.764;2023-03-14T08:00:50;99269.16;;;1.65;79.18
44198;BME280;30157;55.512;37.764;2023-03-14T08:03:16;99282.38;;;1.85;78.59
44198;BME280;30157;55.512;37.764;2023-03-14T08:05:42;99281.69;;;1.93;78.02
44198;BME280;30157;55.512;37.764;2023-03-14T08:08:08;99277.59;;;2.01;78.42
44198;BME280;30157;55.512;37.764;2023-03-14T08:10:34;99244.94;;;1.89;77.53
44198;BME280;30157;55.512;37.764;2023-03-14T08:13:01;99291.09;;;1.94;77.72
44198;BME280;30157;55.512;37.764;2023-03-14T08:15:30;99276.47;;;1.88;77.39
44198;BME280;30157;55.512;37.764;2023-03-14T08:17:56;99206.56;;;1.49;77.14
44198;BME280;30157;55.512;37.764;2023-03-14T08:20:27;99304.97;;;2.04;78.06
44198;BME280;30157;55.512;37.764;2023-03-14T08:22:58;99282.75;;;2.03;76.76
44198;BME280;30157;55.512;37.764;2023-03-14T08:25:26;99290.50;;;2.07;76.08
44198;BME280;30157;55.512;37.764;2023-03-14T08:27:53;99183.91;;;1.66;74.80
44198;BME280;30157;55.512;37.764;2023-03-14T08:30:19;99261.72;;;2.17;76.50
44198;BME280;30157;55.512;37.764;2023-03-14T08:32:45;99292.97;;;2.44;74.21
44198;BME280;30157;55.512;37.764;2023-03-14T08:35:12;99287.97;;;2.51;73.65
44198;BME280;30157;55.512;37.764;2023-03-14T08:37:38;99303.63;;;2.65;73.05
44198;BME280;30157;55.512;37.764;2023-03-14T08:40:05;99311.31;;;2.65;72.77
44198;BME280;30157;55.512;37.764;2023-03-14T08:42:36;99192.31;;;2.02;72.13
44198;BME280;30157;55.512;37.764;2023-03-14T08:45:02;99282.97;;;2.56;70.55
44198;BME280;30157;55.512;37.764;2023-03-14T08:47:29;99302.16;;;2.80;71.28
44198;BME280;30157;55.512;37.764;2023-03-14T08:49:55;99303.31;;;2.96;71.05
44198;BME280;30157;55.512;37.764;2023-03-14T08:52:20;99191.25;;;2.38;71.01
44198;BME280;30157;55.512;37.764;2023-03-14T08:54:46;99263.13;;;2.95;69.93
44198;BME280;30157;55.512;37.764;2023-03-14T08:57:12;99294.31;;;3.18;68.10
44198;BME280;30157;55.512;37.764;2023-03-14T08:59:38;99291.00;;;3.25;70.26
44198;BME280;30157;55.512;37.764;2023-03-14T09:02:04;99274.44;;;3.06;67.48
44198;BME280;30157;55.512;37.764;2023-03-14T09:04:31;99288.94;;;3.04;67.92
44198;BME280;30157;55.512;37.764;2023-03-14T09:06:57;99287.31;;;3.11;68.11
44198;BME280;30157;55.512;37.764;2023-03-14T09:09:24;99260.72;;;3.04;67.65
44198;BME280;30157;55.512;37.764;2023-03-14T09:11:50;99280.72;;;3.24;67.36
44198;BME280;30157;55.512;37.764;2023-03-14T09:14:16;99282.34;;;3.18;66.89
44198;BME280;30157;55.512;37.764;2023-03-14T09:16:41;99285.00;;;3.25;66.24
44198;BME280;30157;55.512;37.764;2023-03-14T09:19:07;99286.00;;;3.33;67.17
44198;BME280;30157;55.512;37.764;2023-03-14T09:21:32;99235.16;;;3.07;66.13
44198;BME280;30157;55.512;37.764;2023-03-14T09:23:58;99295.63;;;3.46;67.10
44198;BME280;30157;55.512;37.764;2023-03-14T09:26:24;99189.19;;;3.19;65.02
44198;BME280;30157;55.512;37.764;2023-03-14T09:28:49;99234.97;;;3.51;64.51
44198;BME280;30157;55.512;37.764;2023-03-14T09:31:15;99247.88;;;3.59;64.20
44198;BME280;30157;55.512;37.764;2023-03-14T09:33:43;99254.84;;;3.66;63.99
44198;BME280;30157;55.512;37.764;2023-03-14T09:36:10;99302.25;;;3.92;63.60
44198;BME280;30157;55.512;37.764;2023-03-14T09:38:36;99251.53;;;3.74;64.85
44198;BME280;30157;55.512;37.764;2023-03-14T09:41:03;99298.84;;;3.94;63.80
44198;BME280;30157;55.512;37.764;2023-03-14T09:43:37;99298.13;;;4.01;63.69
44198;BME280;30157;55.512;37.764;2023-03-14T09:46:05;99211.91;;;3.55;63.88
44198;BME280;30157;55.512;37.764;2023-03-14T09:48:33;99267.22;;;3.95;62.41
44198;BME280;30157;55.512;37.764;2023-03-14T09:51:02;99276.78;;;4.09;61.64
44198;BME280;30157;55.512;37.764;2023-03-14T09:53:49;99289.59;;;4.06;61.59
44198;BME280;30157;55.512;37.764;2023-03-14T09:56:23;99250.16;;;4.00;61.31
44198;BME280;30157;55.512;37.764;2023-03-14T09:58:54;99197.63;;;3.75;62.01
44198;BME280;30157;55.512;37.764;2023-03-14T10:01:28;99294.22;;;4.31;61.53
44198;BME280;30157;55.512;37.764;2023-03-14T10:03:55;99230.34;;;3.90;60.76
44198;BME280;30157;55.512;37.764;2023-03-14T10:06:25;99265.03;;;4.26;60.66
44198;BME280;30157;55.512;37.764;2023-03-14T10:08:55;99282.97;;;4.23;61.31
44198;BME280;30157;55.512;37.764;2023-03-14T10:11:23;99271.00;;;4.27;61.24
44198;BME280;30157;55.512;37.764;2023-03-14T10:14:10;99241.75;;;4.14;61.35
44198;BME280;30157;55.512;37.764;2023-03-14T10:16:45;99273.75;;;4.39;61.02
44198;BME280;30157;55.512;37.764;2023-03-14T10:19:13;99254.06;;;4.43;61.19
44198;BME280;30157;55.512;37.764;2023-03-14T10:21:42;99261.84;;;4.46;61.43
44198;BME280;30157;55.512;37.764;2023-03-14T10:24:10;99236.03;;;4.35;60.71
44198;BME280;30157;55.512;37.764;2023-03-14T10:26:36;99230.06;;;4.41;60.14
44198;BME280;30157;55.512;37.764;2023-03-14T10:29:12;99149.22;;;4.06;60.18
44198;BME280;30157;55.512;37.764;2023-03-14T10:31:50;99230.31;;;4.64;60.17
44198;BME280;30157;55.512;37.764;2023-03-14T10:34:34;99120.97;;;4.08;59.96
44198;BME280;30157;55.512;37.764;2023-03-14T10:37:22;99232.19;;;4.82;60.14
44198;BME280;30157;55.512;37.764;2023-03-14T10:39:56;99249.47;;;4.97;59.65
44198;BME280;30157;55.512;37.764;2023-03-14T10:42:26;99245.09;;;4.85;59.87
44198;BME280;30157;55.512;37.764;2023-03-14T10:45:04;99169.28;;;4.43;60.67
44198;BME280;30157;55.512;37.764;2023-03-14T10:47:33;99236.44;;;4.77;60.19
44198;BME280;30157;55.512;37.764;2023-03-14T10:50:22;99249.41;;;4.89;60.35
44198;BME280;30157;55.512;37.764;2023-03-14T10:52:49;99255.47;;;4.97;59.91
44198;BME280;30157;55.512;37.764;2023-03-14T10:55:17;99230.66;;;5.01;59.27
44198;BME280;30157;55.512;37.764;2023-03-14T10:57:43;99234.16;;;5.14;59.22
44198;BME280;30157;55.512;37.764;2023-03-14T11:00:17;99212.66;;;5.02;58.63
44198;BME280;30157;55.512;37.764;2023-03-14T11:06:07;99055.09;;;4.10;58.01
44198;BME280;30157;55.512;37.764;2023-03-14T11:08:57;99232.50;;;5.20;58.14
44198;BME280;30157;55.512;37.764;2023-03-14T11:11:29;99192.00;;;4.95;57.58
44198;BME280;30157;55.512;37.764;2023-03-14T11:19:20;99193.91;;;5.22;56.44
44198;BME280;30157;55.512;37.764;2023-03-14T11:27:25;99154.41;;;5.14;56.70
44198;BME280;30157;55.512;37.764;2023-03-14T11:32:43;99232.88;;;5.78;55.84
44198;BME280;30157;55.512;37.764;2023-03-14T11:35:30;99151.97;;;5.32;55.89
44198;BME280;30157;55.512;37.764;2023-03-14T11:40:27;99220.66;;;5.43;55.94
44198;BME280;30157;55.512;37.764;2023-03-14T11:43:24;99236.97;;;5.45;55.74
44198;BME280;30157;55.512;37.764;2023-03-14T11:45:54;99166.34;;;5.02;55.63
44198;BME280;30157;55.512;37.764;2023-03-14T11:48:39;99261.09;;;5.58;55.70
44198;BME280;30157;55.512;37.764;2023-03-14T11:51:21;99150.88;;;4.95;55.93
44198;BME280;30157;55.512;37.764;2023-03-14T11:59:27;99268.03;;;5.72;55.48
44198;BME280;30157;55.512;37.764;2023-03-14T12:01:54;99179.38;;;5.22;55.73
44198;BME280;30157;55.512;37.764;2023-03-14T12:04:39;99227.56;;;5.53;55.91
44198;BME280;30157;55.512;37.764;2023-03-14T12:07:15;99255.13;;;5.63;56.37
44198;BME280;30157;55.512;37.764;2023-03-14T12:09:44;99197.31;;;5.15;55.40
44198;BME280;30157;55.512;37.764;2023-03-14T12:12:14;99294.56;;;5.58;55.55
44198;BME280;30157;55.512;37.764;2023-03-14T12:14:53;99227.34;;;5.19;55.72
44198;BME280;30157;55.512;37.764;2023-03-14T12:17:23;99229.84;;;5.07;56.27
44198;BME280;30157;55.512;37.764;2023-03-14T12:22:48;99264.19;;;5.15;55.68
44198;BME280;30157;55.512;37.764;2023-03-14T12:25:17;99298.56;;;5.23;56.09
44198;BME280;30157;55.512;37.764;2023-03-14T12:35:40;99195.16;;;4.61;56.47
44198;BME280;30157;55.512;37.764;2023-03-14T12:38:28;99288.19;;;5.11;56.72
44198;BME280;30157;55.512;37.764;2023-03-14T12:41:17;99293.25;;;5.03;56.26
44198;BME280;30157;55.512;37.764;2023-03-14T12:43:46;99272.56;;;4.94;56.22
44198;BME280;30157;55.512;37.764;2023-03-14T12:48:44;99263.94;;;4.84;56.17
44198;BME280;30157;55.512;37.764;2023-03-14T12:51:16;99250.13;;;4.76;56.60
44198;BME280;30157;55.512;37.764;2023-03-14T13:01:55;99288.69;;;4.74;57.20
44198;BME280;30157;55.512;37.764;2023-03-14T13:04:32;99230.06;;;4.41;57.24
44198;BME280;30157;55.512;37.764;2023-03-14T13:07:00;99180.03;;;4.08;57.46
44198;BME280;30157;55.512;37.764;2023-03-14T13:12:10;99205.03;;;4.21;57.63
44198;BME280;30157;55.512;37.764;2023-03-14T13:14:41;99261.84;;;4.49;57.35
44198;BME280;30157;55.512;37.764;2023-03-14T13:17:10;99238.53;;;4.33;57.85
44198;BME280;30157;55.512;37.764;2023-03-14T13:19:37;99277.31;;;4.52;57.98
44198;BME280;30157;55.512;37.764;2023-03-14T13:22:13;99285.00;;;4.52;58.18
44198;BME280;30157;55.512;37.764;2023-03-14T13:24:41;99291.78;;;4.44;58.21
44198;BME280;30157;55.512;37.764;2023-03-14T13:27:18;99264.16;;;4.24;58.45
44198;BME280;30157;55.512;37.764;2023-03-14T13:29:48;99281.47;;;4.41;57.85
44198;BME280;30157;55.512;37.764;2023-03-14T13:32:22;99284.00;;;4.37;58.44
44198;BME280;30157;55.512;37.764;2023-03-14T13:34:51;99286.41;;;4.25;58.46
44198;BME280;30157;55.512;37.764;2023-03-14T13:37:22;99283.16;;;4.38;58.29
44198;BME280;30157;55.512;37.764;2023-03-14T13:39:57;99285.72;;;4.40;58.20
44198;BME280;30157;55.512;37.764;2023-03-14T13:42:29;99276.25;;;4.34;57.97
44198;BME280;30157;55.512;37.764;2023-03-14T13:44:56;99249.50;;;4.17;58.75
44198;BME280;30157;55.512;37.764;2023-03-14T13:47:24;99214.31;;;4.08;58.35
44198;BME280;30157;55.512;37.764;2023-03-14T13:49:50;99261.66;;;4.32;58.38
44198;BME280;30157;55.512;37.764;2023-03-14T13:54:57;99231.50;;;4.15;57.64
44198;BME280;30157;55.512;37.764;2023-03-14T13:57:24;99227.34;;;4.27;57.99
44198;BME280;30157;55.512;37.764;2023-03-14T14:00:06;99282.41;;;4.47;57.82
44198;BME280;30157;55.512;37.764;2023-03-14T14:02:37;99209.91;;;3.98;57.87
44198;BME280;30157;55.512;37.764;2023-03-14T14:05:04;99272.06;;;4.43;58.10
44198;BME280;30157;55.512;37.764;2023-03-14T14:07:30;99222.03;;;4.10;58.11
44198;BME280;30157;55.512;37.764;2023-03-14T14:09:58;99238.38;;;4.18;58.09
44198;BME280;30157;55.512;37.764;2023-03-14T14:12:37;99289.16;;;4.37;58.10